Time;durP1;ratioP1;P1;durP2;ratioP2;P2;SDS_P1;SDS_P2;PMS_P1;PMS_P2;Temp;Humidity;BMP_temperature;BMP_pressure;BME280_temperature;BME280_humidity;BME280_pressure;Samples;Min_cycle;Max_cycle;Signal;HPM_P1;HPM_P2
2021/09/22 00:00:12;;;;;;;20.35;14.70;;;8.70;99.90;;;;;;5092003;28;20453;-69
2021/09/22 00:02:38;;;;;;;20.08;14.65;;;8.70;99.90;;;;;;5092385;28;20040;-69
2021/09/22 00:05:04;;;;;;;19.98;14.93;;;8.70;99.90;;;;;;5091812;28;20051;-69
2021/09/22 00:07:29;;;;;;;20.33;15.65;;;8.70;99.90;;;;;;5091442;28;20111;-69
2021/09/22 00:09:55;;;;;;;19.75;14.20;;;8.70;99.90;;;;;;5091292;28;20116;-69
2021/09/22 00:12:21;;;;;;;19.25;14.93;;;8.70;99.90;;;;;;5091274;28;20834;-69
2021/09/22 00:14:46;;;;;;;18.00;13.98;;;8.70;99.90;;;;;;5090404;28;20397;-68
2021/09/22 00:17:12;;;;;;;19.10;14.32;;;8.60;99.90;;;;;;5092051;28;20076;-70
2021/09/22 00:19:37;;;;;;;20.30;15.60;;;8.60;99.90;;;;;;5091505;28;20028;-69
2021/09/22 00:22:03;;;;;;;19.77;15.40;;;8.60;99.90;;;;;;5091286;28;20044;-69
2021/09/22 00:24:29;;;;;;;21.58;16.75;;;8.60;99.90;;;;;;5091726;28;20426;-69
2021/09/22 00:26:54;;;;;;;20.05;15.30;;;8.60;99.90;;;;;;5090688;28;20039;-69
2021/09/22 00:29:20;;;;;;;17.90;14.60;;;8.50;99.90;;;;;;5092407;28;20047;-69
2021/09/22 00:31:45;;;;;;;19.70;15.20;;;8.50;99.90;;;;;;5090976;28;20093;-68
2021/09/22 00:34:11;;;;;;;23.48;16.05;;;8.50;99.90;;;;;;5090960;28;20081;-69
2021/09/22 00:36:37;;;;;;;21.23;15.20;;;8.50;99.90;;;;;;5091409;28;20032;-69
2021/09/22 00:39:03;;;;;;;19.75;14.65;;;8.40;99.90;;;;;;5091037;28;20032;-69
2021/09/22 00:41:28;;;;;;;22.02;16.33;;;8.40;99.90;;;;;;5091139;28;20043;-68
2021/09/22 00:43:54;;;;;;;23.25;17.50;;;8.40;99.90;;;;;;5090600;28;20072;-69
2021/09/22 00:46:20;;;;;;;21.00;16.42;;;8.40;99.90;;;;;;5091919;28;20111;-69
2021/09/22 00:48:45;;;;;;;22.77;16.70;;;8.40;99.90;;;;;;5090792;28;20030;-68
2021/09/22 00:51:12;;;;;;;24.15;17.15;;;8.40;99.90;;;;;;5091311;28;20088;-69
2021/09/22 00:53:38;;;;;;;22.92;17.42;;;8.40;99.90;;;;;;5091265;28;20036;-70
2021/09/22 00:56:05;;;;;;;29.30;17.55;;;8.40;99.90;;;;;;5090763;28;20077;-69
2021/09/22 00:58:32;;;;;;;25.58;18.77;;;8.40;99.90;;;;;;5091257;28;20099;-69
2021/09/22 01:00:58;;;;;;;21.45;15.98;;;8.40;99.90;;;;;;5090329;28;20027;-69
2021/09/22 01:03:24;;;;;;;24.75;17.58;;;8.40;99.90;;;;;;5091423;28;20032;-69
2021/09/22 01:05:51;;;;;;;22.15;17.50;;;8.40;99.90;;;;;;5090237;28;20032;-68
2021/09/22 01:08:17;;;;;;;20.88;16.05;;;8.30;99.90;;;;;;5091274;28;20050;-69
2021/09/22 01:10:48;;;;;;;26.63;16.70;;;8.30;99.90;;;;;;5092846;28;20518;-69
2021/09/22 01:13:14;;;;;;;;;;;8.30;99.90;;;;;;5095541;28;20024;-69
2021/09/22 01:15:43;;;;;;;22.48;16.73;;;8.30;99.90;;;;;;5095115;28;20337;-70
2021/09/22 01:18:14;;;;;;;21.88;16.95;;;8.30;99.90;;;;;;5094663;28;20031;-69
2021/09/22 01:20:41;;;;;;;26.15;19.67;;;8.30;99.90;;;;;;5095453;28;20056;-69
2021/09/22 01:23:08;;;;;;;26.02;16.63;;;8.30;99.90;;;;;;5094239;28;20027;-69
2021/09/22 01:25:36;;;;;;;24.92;18.23;;;8.30;99.90;;;;;;5095049;28;20024;-69
2021/09/22 01:28:03;;;;;;;26.05;18.10;;;8.30;99.90;;;;;;5094060;28;20038;-69
2021/09/22 01:30:30;;;;;;;24.95;18.42;;;8.30;99.90;;;;;;5095090;28;20055;-69
2021/09/22 01:33:04;;;;;;;25.00;16.92;;;8.30;99.90;;;;;;5094379;28;20028;-69
2021/09/22 01:35:38;;;;;;;22.92;16.90;;;8.20;99.90;;;;;;5095352;28;20111;-69
2021/09/22 01:38:09;;;;;;;22.83;17.10;;;8.20;99.90;;;;;;5094450;28;20024;-69
2021/09/22 01:40:35;;;;;;;22.73;16.15;;;8.20;99.90;;;;;;5094823;28;20059;-69
2021/09/22 01:43:01;;;;;;;27.00;18.85;;;;;;;;;;5093528;28;20460;-69
2021/09/22 01:45:28;;;;;;;25.98;18.90;;;;;;;;;;5094517;28;20503;-69
2021/09/22 01:47:53;;;;;;;27.33;19.08;;;;;;;;;;5093754;28;20029;-69
2021/09/22 01:50:21;;;;;;;28.25;19.55;;;8.00;99.90;;;;;;5095103;28;20031;-69
2021/09/22 01:52:49;;;;;;;27.50;19.10;;;8.00;99.90;;;;;;5094025;28;20118;-68
2021/09/22 01:55:21;;;;;;;27.58;20.48;;;7.90;99.90;;;;;;5094734;28;20484;-69
2021/09/22 01:57:48;;;;;;;26.20;18.40;;;7.90;99.90;;;;;;5095144;28;20035;-70
2021/09/22 02:00:14;;;;;;;27.08;19.25;;;7.90;99.90;;;;;;5094066;28;20024;-69
2021/09/22 02:02:40;;;;;;;27.17;18.52;;;7.80;99.90;;;;;;5094437;28;20562;-69
2021/09/22 02:05:06;;;;;;;27.75;19.58;;;7.80;99.90;;;;;;5093424;28;20517;-69
2021/09/22 02:07:32;;;;;;;26.75;19.15;;;7.80;99.90;;;;;;5093890;28;20035;-69
2021/09/22 02:09:59;;;;;;;26.33;19.65;;;7.80;99.90;;;;;;5093643;28;20473;-69
2021/09/22 02:12:28;;;;;;;28.67;19.80;;;7.80;99.90;;;;;;5093916;28;20040;-69
2021/09/22 02:14:55;;;;;;;31.50;22.00;;;7.70;99.90;;;;;;5093405;28;20039;-68
2021/09/22 02:17:21;;;;;;;29.75;20.77;;;7.70;99.90;;;;;;5094170;28;20024;-69
2021/09/22 02:19:46;;;;;;;32.35;21.23;;;7.70;99.90;;;;;;5094373;28;20461;-69
2021/09/22 02:22:12;;;;;;;28.75;21.50;;;7.80;99.90;;;;;;5091540;28;20431;-69
2021/09/22 02:24:42;;;;;;;28.80;20.90;;;7.80;99.90;;;;;;5094327;28;20128;-69
2021/09/22 02:27:09;;;;;;;30.83;20.35;;;7.80;99.90;;;;;;5093105;28;20032;-69
2021/09/22 02:29:35;;;;;;;29.92;20.98;;;7.80;99.90;;;;;;5093977;28;20038;-69
2021/09/22 02:32:01;;;;;;;28.20;20.38;;;7.80;99.90;;;;;;5093176;28;20111;-69
2021/09/22 02:34:26;;;;;;;31.70;20.70;;;7.80;99.90;;;;;;5093834;28;20401;-69
2021/09/22 02:36:52;;;;;;;25.63;18.73;;;7.70;99.90;;;;;;5092972;28;20469;-68
2021/09/22 02:39:17;;;;;;;30.08;21.20;;;7.70;99.90;;;;;;5093174;28;20059;-68
2021/09/22 02:41:43;;;;;;;31.50;21.05;;;7.70;99.90;;;;;;5093416;28;20472;-69
2021/09/22 02:44:09;;;;;;;31.88;21.90;;;7.60;99.90;;;;;;5092909;28;20610;-68
2021/09/22 02:46:34;;;;;;;32.85;22.25;;;7.60;99.90;;;;;;5093354;28;20020;-69
2021/09/22 02:49:00;;;;;;;34.20;21.95;;;7.60;99.90;;;;;;5092563;28;20024;-69
2021/09/22 02:51:26;;;;;;;33.53;21.60;;;7.60;99.90;;;;;;5093775;28;20036;-69
2021/09/22 02:53:52;;;;;;;33.45;22.67;;;7.60;99.90;;;;;;5092059;28;20028;-67
2021/09/22 02:56:18;;;;;;;29.85;20.65;;;7.60;99.90;;;;;;5093505;28;20032;-69
2021/09/22 02:58:43;;;;;;;34.22;22.75;;;7.60;99.90;;;;;;5093568;28;20481;-69
2021/09/22 03:01:09;;;;;;;32.10;22.42;;;7.60;99.90;;;;;;5092580;28;20251;-69
2021/09/22 03:03:34;;;;;;;31.92;21.42;;;7.60;99.90;;;;;;5093161;28;20028;-69
2021/09/22 03:06:00;;;;;;;28.45;21.00;;;7.60;99.90;;;;;;5074518;28;20039;-68
2021/09/22 03:08:26;;;;;;;28.60;21.23;;;7.50;99.90;;;;;;5074912;28;20047;-68
2021/09/22 03:10:51;;;;;;;28.27;20.38;;;7.50;99.90;;;;;;5092830;28;20062;-68
2021/09/22 03:13:17;;;;;;;32.90;22.48;;;7.50;99.90;;;;;;5092569;28;20107;-68
2021/09/22 03:15:43;;;;;;;36.33;23.67;;;7.40;99.90;;;;;;5093027;28;20105;-69
2021/09/22 03:18:08;;;;;;;34.80;23.70;;;7.50;99.90;;;;;;5092062;28;20028;-69
2021/09/22 03:20:34;;;;;;;34.20;22.02;;;7.50;99.90;;;;;;5092625;28;20470;-68
2021/09/22 03:23:00;;;;;;;32.90;21.52;;;7.50;99.90;;;;;;5092278;28;20039;-68
2021/09/22 03:25:25;;;;;;;31.00;22.00;;;7.50;99.90;;;;;;5092468;28;20056;-69
2021/09/22 03:27:51;;;;;;;29.92;21.27;;;7.50;99.90;;;;;;5092675;28;20035;-68
2021/09/22 03:30:17;;;;;;;29.27;21.13;;;7.40;99.90;;;;;;5092546;28;20055;-69
2021/09/22 03:32:43;;;;;;;34.78;24.00;;;7.40;99.90;;;;;;5092270;28;20032;-69
2021/09/22 03:35:10;;;;;;;31.70;23.02;;;7.30;99.90;;;;;;5092173;28;20082;-69
2021/09/22 03:37:36;;;;;;;37.35;23.92;;;7.40;99.90;;;;;;5092338;28;20031;-68
2021/09/22 03:40:02;;;;;;;41.13;24.38;;;7.40;99.90;;;;;;5091274;28;20016;-69
2021/09/22 03:42:28;;;;;;;37.80;24.52;;;7.40;99.90;;;;;;5092326;28;20071;-69
2021/09/22 03:44:54;;;;;;;35.17;24.02;;;7.30;99.90;;;;;;5091421;28;20055;-67
2021/09/22 03:47:19;;;;;;;35.53;23.70;;;7.30;99.90;;;;;;5092492;28;20480;-69
2021/09/22 03:49:45;;;;;;;38.67;24.60;;;7.40;99.90;;;;;;5091801;28;20024;-68
2021/09/22 03:52:10;;;;;;;37.75;25.02;;;7.30;99.90;;;;;;5091443;28;20028;-68
2021/09/22 03:54:36;;;;;;;34.60;24.10;;;7.40;99.90;;;;;;5092035;28;20048;-69
2021/09/22 03:57:02;;;;;;;40.90;24.95;;;7.40;99.90;;;;;;5091756;28;20044;-69
2021/09/22 03:59:27;;;;;;;45.17;25.30;;;7.40;99.90;;;;;;5092482;28;20107;-69
2021/09/22 04:01:53;;;;;;;38.50;25.17;;;7.40;99.90;;;;;;5091464;28;20031;-68
2021/09/22 04:04:19;;;;;;;38.50;25.08;;;7.40;99.90;;;;;;5091709;28;20055;-69
2021/09/22 04:06:44;;;;;;;35.58;24.00;;;7.40;99.90;;;;;;5092184;28;20045;-68
2021/09/22 04:09:10;;;;;;;32.05;20.70;;;7.30;99.90;;;;;;5091212;28;20020;-69
2021/09/22 04:11:37;;;;;;;31.70;21.15;;;7.30;99.90;;;;;;5091941;28;20020;-69
2021/09/22 04:14:03;;;;;;;31.60;21.42;;;7.20;99.90;;;;;;5090879;28;20119;-68
2021/09/22 04:16:29;;;;;;;33.58;21.98;;;7.10;99.90;;;;;;5091640;28;20111;-68
2021/09/22 04:18:55;;;;;;;36.00;23.73;;;7.10;99.90;;;;;;5090983;28;20500;-68
2021/09/22 04:21:21;;;;;;;41.13;25.92;;;7.10;99.90;;;;;;5091947;28;20038;-69
2021/09/22 04:23:46;;;;;;;40.30;26.05;;;7.10;99.90;;;;;;5091992;28;20032;-69
2021/09/22 04:26:12;;;;;;;42.50;25.63;;;7.10;99.90;;;;;;5091019;28;20024;-69
2021/09/22 04:28:38;;;;;;;39.78;25.45;;;7.10;99.90;;;;;;5091566;28;20024;-69
2021/09/22 04:31:03;;;;;;;37.85;23.98;;;7.20;99.90;;;;;;5091263;28;20035;-69
2021/09/22 04:33:29;;;;;;;38.55;25.38;;;7.20;99.90;;;;;;5091529;28;20032;-69
2021/09/22 04:35:56;;;;;;;41.75;25.92;;;7.20;99.90;;;;;;5091039;28;20025;-68
2021/09/22 04:38:22;;;;;;;35.97;24.38;;;7.20;99.90;;;;;;5091946;28;20052;-69
2021/09/22 04:40:48;;;;;;;41.30;26.17;;;7.20;99.90;;;;;;5090959;28;20051;-69
2021/09/22 04:43:13;;;;;;;41.60;25.75;;;7.20;99.90;;;;;;5090134;28;20040;-69
2021/09/22 04:45:39;;;;;;;47.33;25.70;;;7.20;99.90;;;;;;5090538;28;20039;-69
2021/09/22 04:48:06;;;;;;;42.40;26.45;;;7.10;99.90;;;;;;5090386;28;20028;-69
2021/09/22 04:50:32;;;;;;;36.58;24.38;;;7.20;99.90;;;;;;5091561;28;20024;-69
2021/09/22 04:52:58;;;;;;;43.17;25.70;;;7.10;99.90;;;;;;5090709;28;20039;-68
2021/09/22 04:55:23;;;;;;;40.47;26.13;;;7.10;99.90;;;;;;5091289;28;20055;-69
2021/09/22 04:57:49;;;;;;;39.95;25.38;;;7.10;99.90;;;;;;5091463;28;20028;-69
2021/09/22 05:00:15;;;;;;;40.92;25.58;;;7.10;99.90;;;;;;5091057;28;20047;-69
2021/09/22 05:02:41;;;;;;;44.22;26.08;;;7.10;99.90;;;;;;5091072;28;20036;-69
2021/09/22 05:05:08;;;;;;;40.92;26.30;;;7.10;99.90;;;;;;5090176;28;20036;-69
2021/09/22 05:07:33;;;;;;;42.20;25.85;;;7.10;99.90;;;;;;5090802;28;20603;-70
2021/09/22 05:09:59;;;;;;;41.85;26.25;;;7.10;99.90;;;;;;5090320;28;20103;-69
2021/09/22 05:12:25;;;;;;;46.45;26.27;;;7.20;99.90;;;;;;5091319;28;20044;-69
2021/09/22 05:14:50;;;;;;;44.72;28.67;;;7.20;99.90;;;;;;5091390;28;20407;-70
2021/09/22 05:17:16;;;;;;;41.15;26.98;;;7.20;99.90;;;;;;5090223;28;20020;-69
2021/09/22 05:19:42;;;;;;;38.85;25.42;;;7.20;99.90;;;;;;5091096;28;20100;-68
2021/09/22 05:22:08;;;;;;;39.92;25.00;;;7.20;99.90;;;;;;5090462;28;20465;-69
2021/09/22 05:24:33;;;;;;;39.35;24.75;;;7.20;99.90;;;;;;5091038;28;20028;-69
2021/09/22 05:26:59;;;;;;;36.22;24.70;;;7.20;99.90;;;;;;5090771;28;20081;-67
2021/09/22 05:29:25;;;;;;;41.78;24.98;;;7.20;99.90;;;;;;5072520;28;20031;-69
2021/09/22 05:31:50;;;;;;;43.25;25.20;;;7.20;99.90;;;;;;5085020;28;20024;-71
2021/09/22 05:34:16;;;;;;;37.75;23.65;;;7.30;99.90;;;;;;5090165;28;20020;-70
2021/09/22 05:36:42;;;;;;;37.13;24.75;;;7.20;99.90;;;;;;5090307;28;20393;-68
2021/09/22 05:39:09;;;;;;;38.63;23.60;;;7.30;99.90;;;;;;5072133;28;20040;-69
2021/09/22 05:41:34;;;;;;;38.83;23.88;;;7.30;99.90;;;;;;5090688;28;20078;-70
2021/09/22 05:44:00;;;;;;;35.25;23.58;;;7.30;99.90;;;;;;5089503;28;20068;-70
2021/09/22 05:46:26;;;;;;;35.65;24.23;;;7.30;99.90;;;;;;5090550;28;20043;-70
2021/09/22 05:48:52;;;;;;;36.63;24.30;;;7.40;99.90;;;;;;5090673;28;20039;-69
2021/09/22 05:51:18;;;;;;;34.58;23.30;;;7.50;99.90;;;;;;5090000;28;20036;-69
2021/09/22 05:53:44;;;;;;;32.33;22.33;;;7.50;99.90;;;;;;5090612;28;20071;-68
2021/09/22 05:56:11;;;;;;;36.40;22.63;;;7.60;99.90;;;;;;5090799;28;20059;-69
2021/09/22 05:58:37;;;;;;;34.55;22.67;;;7.60;99.90;;;;;;5094621;28;20036;-68
2021/09/22 06:01:03;;;;;;;32.03;21.70;;;7.60;99.90;;;;;;5093337;28;20073;-66
2021/09/22 06:03:28;;;;;;;29.90;20.85;;;7.70;99.90;;;;;;5094533;28;20031;-65
2021/09/22 06:05:54;;;;;;;33.80;22.00;;;7.80;99.90;;;;;;5075946;28;20125;-67
2021/09/22 06:08:20;;;;;;;32.20;21.73;;;7.90;99.90;;;;;;5093165;28;20150;-66
2021/09/22 06:10:46;;;;;;;34.30;21.60;;;7.90;99.90;;;;;;5094110;28;20024;-67
2021/09/22 06:13:12;;;;;;;31.90;22.50;;;8.00;99.90;;;;;;5093261;28;20115;-67
2021/09/22 06:15:39;;;;;;;30.48;21.88;;;8.10;99.90;;;;;;5085553;28;20133;-66
2021/09/22 06:18:05;;;;;;;32.03;22.60;;;8.20;99.90;;;;;;5093465;28;20054;-67
2021/09/22 06:20:31;;;;;;;30.63;22.27;;;8.30;99.90;;;;;;5093352;28;20477;-67
2021/09/22 06:22:56;;;;;;;27.52;20.77;;;8.50;99.90;;;;;;5094278;28;20040;-66
2021/09/22 06:25:23;;;;;;;27.17;19.23;;;8.50;99.90;;;;;;5092471;28;20042;-67
2021/09/22 06:27:49;;;;;;;25.45;19.02;;;8.60;99.90;;;;;;5083310;28;20020;-67
2021/09/22 06:30:15;;;;;;;30.65;19.30;;;8.70;99.90;;;;;;5091993;28;20028;-68
2021/09/22 06:32:41;;;;;;;25.80;19.40;;;8.80;99.90;;;;;;5093408;28;20028;-68
2021/09/22 06:35:09;;;;;;;25.67;19.30;;;8.80;99.90;;;;;;5092777;28;20046;-68
2021/09/22 06:37:34;;;;;;;28.25;20.05;;;8.90;99.90;;;;;;5093689;28;20028;-67
2021/09/22 06:40:00;;;;;;;27.02;19.55;;;9.10;99.90;;;;;;5092271;28;20488;-67
2021/09/22 06:42:26;;;;;;;30.42;20.17;;;9.10;99.90;;;;;;5093295;28;20044;-68
2021/09/22 06:44:51;;;;;;;27.52;19.77;;;9.30;99.90;;;;;;5093471;28;20465;-67
2021/09/22 06:47:18;;;;;;;28.35;19.55;;;9.40;99.90;;;;;;5092646;28;20674;-68
2021/09/22 06:49:44;;;;;;;27.58;20.38;;;9.50;99.90;;;;;;5092557;28;20347;-68
2021/09/22 06:52:09;;;;;;;27.50;20.80;;;9.60;99.90;;;;;;5092037;28;20035;-67
2021/09/22 06:54:35;;;;;;;30.88;20.10;;;9.80;99.90;;;;;;5093314;28;20027;-67
2021/09/22 06:57:02;;;;;;;23.75;18.98;;;9.80;99.90;;;;;;5093135;28;20481;-67
2021/09/22 06:59:28;;;;;;;28.05;20.88;;;9.90;99.90;;;;;;5093447;28;20107;-67
2021/09/22 07:01:53;;;;;;;25.60;18.83;;;9.90;99.90;;;;;;5092785;28;20146;-67
2021/09/22 07:04:19;;;;;;;25.15;18.25;;;10.00;99.90;;;;;;5092010;28;20020;-67
2021/09/22 07:06:45;;;;;;;22.58;17.45;;;10.10;99.90;;;;;;5093208;28;20024;-68
2021/09/22 07:09:11;;;;;;;27.02;18.75;;;10.20;99.90;;;;;;5090776;28;20016;-67
2021/09/22 07:11:37;;;;;;;26.75;19.30;;;10.30;99.90;;;;;;5093246;28;20093;-68
2021/09/22 07:14:03;;;;;;;22.35;17.10;;;10.30;99.90;;;;;;5092122;28;20094;-68
2021/09/22 07:16:29;;;;;;;25.27;18.42;;;10.50;99.90;;;;;;5087977;28;20028;-67
2021/09/22 07:18:56;;;;;;;24.65;19.10;;;10.60;99.90;;;;;;5092762;28;20028;-68
2021/09/22 07:21:23;;;;;;;26.48;18.38;;;10.70;99.90;;;;;;5091805;28;20077;-67
2021/09/22 07:23:49;;;;;;;24.63;18.60;;;10.70;99.90;;;;;;5092215;28;20070;-67
2021/09/22 07:26:15;;;;;;;21.73;17.48;;;10.80;99.90;;;;;;5091832;28;20024;-67
2021/09/22 07:28:41;;;;;;;22.75;17.58;;;10.90;99.90;;;;;;5092576;28;20028;-67
2021/09/22 07:31:07;;;;;;;22.45;16.88;;;10.90;99.90;;;;;;5087082;28;20058;-67
2021/09/22 07:33:33;;;;;;;22.58;17.95;;;11.00;99.90;;;;;;5092397;28;20062;-67
2021/09/22 07:35:59;;;;;;;23.63;18.13;;;11.10;99.90;;;;;;5091793;28;20039;-68
2021/09/22 07:38:26;;;;;;;20.88;16.33;;;11.20;99.90;;;;;;5091723;28;20032;-68
2021/09/22 07:40:52;;;;;;;24.50;17.58;;;11.20;99.90;;;;;;5087216;28;20123;-67
2021/09/22 07:43:18;;;;;;;22.67;17.00;;;11.20;99.90;;;;;;5090896;28;20119;-67
2021/09/22 07:45:44;;;;;;;23.05;18.08;;;11.30;99.90;;;;;;5092056;28;20541;-68
2021/09/22 07:48:10;;;;;;;22.33;17.77;;;11.40;99.90;;;;;;5091107;28;20028;-67
2021/09/22 07:50:35;;;;;;;27.23;17.90;;;11.60;99.90;;;;;;5092383;28;20077;-68
2021/09/22 07:53:01;;;;;;;25.70;17.00;;;11.60;99.90;;;;;;5091085;28;20032;-67
2021/09/22 07:55:27;;;;;;;21.23;16.13;;;11.80;99.90;;;;;;5091318;28;20039;-68
2021/09/22 07:57:54;;;;;;;21.75;17.00;;;11.90;99.90;;;;;;5091547;28;20028;-68
2021/09/22 08:00:21;;;;;;;22.50;16.27;;;12.00;99.90;;;;;;5090507;28;20027;-68
2021/09/22 08:02:48;;;;;;;25.15;15.85;;;12.00;99.90;;;;;;5091899;28;20127;-67
2021/09/22 08:05:13;;;;;;;24.98;18.45;;;12.10;99.90;;;;;;5090820;28;20028;-67
2021/09/22 08:07:39;;;;;;;25.50;16.38;;;12.20;99.90;;;;;;5091701;28;20173;-68
2021/09/22 08:10:05;;;;;;;26.23;15.98;;;12.40;99.90;;;;;;5091549;28;20032;-68
2021/09/22 08:12:31;;;;;;;20.13;15.18;;;12.50;99.90;;;;;;5091559;28;20036;-68
2021/09/22 08:14:57;;;;;;;25.65;15.75;;;12.70;99.90;;;;;;5091785;28;20484;-67
2021/09/22 08:17:23;;;;;;;20.77;15.95;;;12.80;99.90;;;;;;5090714;28;20024;-68
2021/09/22 08:19:49;;;;;;;23.60;17.27;;;12.90;99.90;;;;;;5090537;28;20112;-68
2021/09/22 08:22:15;;;;;;;18.70;15.07;;;12.90;99.90;;;;;;5090029;28;20055;-68
2021/09/22 08:24:41;;;;;;;22.05;14.98;;;13.00;99.90;;;;;;5091813;28;20156;-68
2021/09/22 08:27:06;;;;;;;20.05;14.07;;;13.20;99.90;;;;;;5090423;28;20045;-67
2021/09/22 08:29:33;;;;;;;21.58;14.40;;;13.30;99.90;;;;;;5091430;28;20024;-68
2021/09/22 08:31:59;;;;;;;20.35;15.20;;;13.30;99.90;;;;;;5091620;28;20060;-68
2021/09/22 08:34:25;;;;;;;19.20;14.90;;;13.40;99.90;;;;;;5090600;28;20028;-67
2021/09/22 08:36:51;;;;;;;19.95;14.40;;;13.50;99.90;;;;;;5077681;28;20028;-68
2021/09/22 08:39:18;;;;;;;21.70;15.68;;;13.50;99.90;;;;;;5091650;28;20035;-67
2021/09/22 08:41:44;;;;;;;23.15;15.48;;;13.70;99.90;;;;;;5092042;28;20040;-67
2021/09/22 08:44:11;;;;;;;19.48;15.13;;;13.80;99.90;;;;;;5090424;28;20038;-67
2021/09/22 08:46:40;;;;;;;16.92;13.90;;;13.90;99.90;;;;;;5066674;28;20025;-68
2021/09/22 08:49:07;;;;;;;23.58;14.85;;;14.10;99.90;;;;;;5090616;28;20020;-68
2021/09/22 08:51:34;;;;;;;18.60;15.18;;;14.20;99.90;;;;;;5091148;28;20059;-68
2021/09/22 08:54:00;;;;;;;26.08;15.98;;;14.20;99.90;;;;;;5091347;28;20032;-68
2021/09/22 08:56:27;;;;;;;22.33;16.10;;;14.30;99.90;;;;;;5090359;28;20075;-68
2021/09/22 08:58:53;;;;;;;22.10;16.08;;;14.40;99.90;;;;;;5091323;28;20532;-68
2021/09/22 09:01:21;;;;;;;19.98;14.05;;;14.50;99.90;;;;;;5090379;28;20055;-67
2021/09/22 09:03:48;;;;;;;22.05;15.93;;;14.50;99.90;;;;;;5090485;28;20032;-67
2021/09/22 09:06:26;;;;;;;23.48;16.33;;;14.70;99.90;;;;;;5085294;28;20036;-68
2021/09/22 09:08:54;;;;;;;20.60;16.30;;;14.80;99.90;;;;;;5083100;28;20024;-68
2021/09/22 09:11:37;;;;;;;22.73;14.90;;;15.10;99.90;;;;;;5090321;28;20024;-68
2021/09/22 09:14:05;;;;;;;30.17;15.68;;;15.30;99.90;;;;;;5091582;28;20236;-68
2021/09/22 09:16:46;;;;;;;23.98;14.45;;;15.40;99.60;;;;;;5090112;28;20119;-68
2021/09/22 09:19:18;;;;;;;14.35;11.93;;;15.50;98.40;;;;;;5089884;28;20582;-68
2021/09/22 09:22:04;;;;;;;16.70;13.38;;;15.60;97.30;;;;;;5090898;28;20024;-68
2021/09/22 09:24:38;;;;;;;21.70;13.57;;;15.70;96.90;;;;;;5072112;28;20183;-68
2021/09/22 09:27:10;;;;;;;16.50;12.55;;;15.90;96.10;;;;;;5091045;28;20100;-68
2021/09/22 09:29:36;;;;;;;15.90;11.23;;;16.00;95.40;;;;;;5089922;28;20103;-67
2021/09/22 09:32:13;;;;;;;20.73;12.50;;;16.00;95.30;;;;;;5093435;28;20450;-69
2021/09/22 09:35:15;;;;;;;20.40;12.60;;;16.20;95.00;;;;;;5094902;28;20024;-68
2021/09/22 09:37:49;;;;;;;16.75;12.50;;;16.30;93.50;;;;;;5093909;28;20089;-65
2021/09/22 09:40:28;;;;;;;15.07;11.32;;;16.40;91.60;;;;;;5093597;28;20039;-67
2021/09/22 09:43:03;;;;;;;12.40;9.50;;;16.50;92.00;;;;;;5076255;28;20082;-67
2021/09/22 09:45:38;;;;;;;12.93;9.35;;;16.40;90.70;;;;;;5092977;28;20058;-68
2021/09/22 09:48:11;;;;;;;15.10;10.52;;;16.50;89.30;;;;;;5094446;28;20475;-68
2021/09/22 09:50:44;;;;;;;15.95;10.90;;;16.60;89.30;;;;;;5094704;28;20373;-67
2021/09/22 09:53:21;;;;;;;15.15;11.60;;;16.70;89.70;;;;;;5093810;28;20027;-67
2021/09/22 09:55:46;;;;;;;17.95;12.55;;;16.80;87.10;;;;;;5094317;28;20020;-68
2021/09/22 09:58:12;;;;;;;15.90;10.68;;;16.80;87.40;;;;;;5093013;28;20035;-68
2021/09/22 10:00:38;;;;;;;11.48;9.68;;;16.80;88.10;;;;;;5093983;28;20028;-68
2021/09/22 10:03:10;;;;;;;13.07;10.65;;;16.80;86.10;;;;;;5093699;28;20073;-68
2021/09/22 10:05:36;;;;;;;19.40;10.50;;;16.80;85.50;;;;;;5093957;28;20120;-68
2021/09/22 10:08:02;;;;;;;12.80;10.57;;;16.80;87.50;;;;;;5094047;28;20460;-68
2021/09/22 10:10:28;;;;;;;13.75;10.93;;;16.80;86.90;;;;;;5075039;28;20107;-67
2021/09/22 10:12:57;;;;;;;13.60;10.35;;;16.80;87.50;;;;;;5094533;28;20032;-68
2021/09/22 10:15:27;;;;;;;10.23;8.88;;;16.80;86.10;;;;;;5092877;28;20032;-67
2021/09/22 10:17:55;;;;;;;12.52;8.23;;;16.80;86.60;;;;;;5093974;28;20393;-68
2021/09/22 10:20:21;;;;;;;12.40;8.25;;;16.90;85.10;;;;;;5093015;28;20051;-68
2021/09/22 10:22:47;;;;;;;11.95;8.38;;;17.10;84.10;;;;;;5094001;28;20040;-68
2021/09/22 10:25:15;;;;;;;10.82;8.57;;;17.30;83.20;;;;;;5092993;28;20036;-68
2021/09/22 10:27:46;;;;;;;12.10;8.18;;;17.40;81.70;;;;;;5093472;28;20131;-68
2021/09/22 10:30:14;;;;;;;9.93;8.50;;;17.50;81.50;;;;;;5092540;28;20021;-65
2021/09/22 10:32:41;;;;;;;8.63;7.50;;;17.70;81.50;;;;;;5093560;28;20034;-65
2021/09/22 10:35:25;;;;;;;10.00;8.57;;;17.70;80.30;;;;;;5094104;28;20055;-67
2021/09/22 10:38:02;;;;;;;9.25;7.65;;;17.80;79.80;;;;;;5093596;28;20060;-65
2021/09/22 10:40:33;;;;;;;10.23;7.18;;;17.90;77.90;;;;;;5092781;28;20040;-65
2021/09/22 10:43:14;;;;;;;12.75;8.32;;;17.90;78.60;;;;;;5091848;28;20036;-66
2021/09/22 10:45:44;;;;;;;9.50;6.90;;;17.90;77.80;;;;;;5092997;28;20028;-65
2021/09/22 10:48:17;;;;;;;;;;;17.90;78.80;;;;;;5075350;28;20020;-65
2021/09/22 10:50:47;;;;;;;9.75;7.65;;;18.00;78.00;;;;;;5093552;28;19915;-65
2021/09/22 10:53:34;;;;;;;7.50;6.70;;;18.20;76.10;;;;;;5092770;28;20191;-68
2021/09/22 10:56:17;;;;;;;7.40;5.93;;;18.20;75.70;;;;;;5092533;28;20370;-68
2021/09/22 10:58:51;;;;;;;7.85;5.80;;;18.30;74.80;;;;;;5093167;28;20562;-68
2021/09/22 11:01:31;;;;;;;9.93;5.72;;;18.30;73.20;;;;;;5092390;28;20533;-68
2021/09/22 11:04:08;;;;;;;5.68;5.15;;;18.30;73.80;;;;;;5092999;28;20039;-66
2021/09/22 11:06:46;;;;;;;4.57;3.70;;;18.40;73.60;;;;;;5088529;28;20032;-65
2021/09/22 11:09:32;;;;;;;3.95;3.38;;;18.70;71.80;;;;;;5092767;28;20024;-65
2021/09/22 11:12:03;;;;;;;3.97;3.28;;;18.80;71.10;;;;;;5088303;28;20044;-66
2021/09/22 11:14:36;;;;;;;6.90;3.33;;;18.70;71.30;;;;;;5093666;28;20027;-66
2021/09/22 11:17:10;;;;;;;3.50;3.03;;;18.90;70.80;;;;;;5092875;28;20073;-66
2021/09/22 11:19:36;;;;;;;5.28;3.58;;;19.10;69.80;;;;;;5092291;28;20488;-65
2021/09/22 11:22:04;;;;;;;3.95;3.50;;;19.40;70.10;;;;;;5093034;28;20056;-66
2021/09/22 11:24:32;;;;;;;7.32;3.38;;;19.50;68.20;;;;;;5092028;28;20042;-65
2021/09/22 11:27:06;;;;;;;4.55;3.70;;;19.50;68.80;;;;;;5091968;28;20034;-65
2021/09/22 11:29:51;;;;;;;4.18;3.35;;;19.70;68.10;;;;;;5091976;28;20027;-65
2021/09/22 11:32:42;;;;;;;3.38;3.00;;;19.90;67.90;;;;;;5091946;28;20053;-65
2021/09/22 11:35:16;;;;;;;3.70;3.30;;;20.20;67.70;;;;;;5092424;28;20103;-65
2021/09/22 11:37:44;;;;;;;3.97;3.55;;;20.40;65.30;;;;;;5092505;28;20056;-65
2021/09/22 11:40:21;;;;;;;6.43;4.00;;;20.40;66.10;;;;;;5091904;28;20039;-65
2021/09/22 11:43:07;;;;;;;5.78;3.85;;;20.20;67.00;;;;;;5091792;28;20036;-66
2021/09/22 11:45:37;;;;;;;4.25;3.70;;;20.10;66.10;;;;;;5090733;28;20095;-66
2021/09/22 11:48:04;;;;;;;6.78;3.90;;;20.20;66.00;;;;;;5087716;28;20039;-66
2021/09/22 11:50:38;;;;;;;3.30;2.92;;;20.20;66.00;;;;;;5089108;28;20136;-66
2021/09/22 11:53:16;;;;;;;6.63;3.15;;;20.30;66.00;;;;;;5092209;28;20162;-66
2021/09/22 11:55:45;;;;;;;3.78;2.97;;;20.60;65.30;;;;;;5074036;28;20024;-66
2021/09/22 11:58:14;;;;;;;4.80;2.53;;;20.70;65.20;;;;;;5092020;28;20024;-66
2021/09/22 12:00:41;;;;;;;4.72;2.63;;;21.00;76.90;;;;;;5092230;28;20031;-66
2021/09/22 12:03:09;;;;;;;5.88;2.13;;;21.30;67.40;;;;;;5091651;28;20518;-66
2021/09/22 12:05:35;;;;;;;5.25;2.30;;;21.50;78.80;;;;;;5091064;28;20063;-66
2021/09/22 12:08:02;;;;;;;2.15;1.95;;;21.70;76.70;;;;;;5091398;28;20115;-66
2021/09/22 12:10:27;;;;;;;2.35;2.10;;;21.50;75.40;;;;;;5090427;28;20048;-66
2021/09/22 12:12:58;;;;;;;3.03;2.47;;;21.20;76.40;;;;;;5090824;28;20097;-66
2021/09/22 12:15:24;;;;;;;5.28;2.60;;;21.10;76.60;;;;;;5090171;28;20051;-66
2021/09/22 12:17:52;;;;;;;4.00;2.40;;;21.00;76.40;;;;;;5091714;28;20051;-66
2021/09/22 12:20:19;;;;;;;4.05;2.50;;;21.10;76.30;;;;;;5090320;28;20024;-66
2021/09/22 12:23:05;;;;;;;3.35;2.90;;;21.30;75.70;;;;;;5091575;28;20530;-66
2021/09/22 12:25:33;;;;;;;5.25;3.00;;;21.50;75.00;;;;;;5091065;28;20032;-66
2021/09/22 12:28:00;;;;;;;6.30;3.25;;;21.70;74.60;;;;;;5091476;28;20099;-67
2021/09/22 12:30:36;;;;;;;5.10;3.20;;;;;;;;;;5090355;28;20055;-67
2021/09/22 12:33:04;;;;;;;3.30;2.60;;;22.00;60.80;;;;;;5091211;28;20038;-67
2021/09/22 12:35:36;;;;;;;4.30;3.28;;;22.20;61.30;;;;;;5090256;28;20032;-67
2021/09/22 12:38:06;;;;;;;3.58;3.03;;;22.40;60.50;;;;;;5091255;28;20055;-67
2021/09/22 12:40:50;;;;;;;5.13;3.63;;;22.40;60.30;;;;;;5090059;28;20543;-67